logo
Search for airport 
image banner adimage banner adimage banner ad
image banner ad

HAKL - Kelafo

Located in Kelafo, Ethiopia

ICAO - HAKL, IATA - LFO

Data provided by Airmate  

General information

Coordinates: N5°36'0" E44°20'0"
Elevation is 1730 feet MSL.
 
View others Airports in Somali

Operational data

Special qualification required
Current time UTC:
Current local time:
Weather at : - ( 0 km )
METAR: KNLC 180156Z 33019G28KT 10SM CLR 28/01 A2975 RMK AO2 PK WND 33030/0124 SLP073 RH/17 T02780011
View NOTAMs / SUP AIP / TFR affecting this airport [VIEW]
Communications frequencies: [VIEW]

Runways:

RWY identifierQFULength (ft)Width (ft)SurfaceLDA (ft)
0700UNK
2500UNK

Airport contact information

Address: Kelafo Ethiopia

Satellite view of HAKL